Time;durP1;ratioP1;P1;durP2;ratioP2;P2;SDS_P1;SDS_P2;PMS_P1;PMS_P2;Temp;Humidity;BMP_temperature;BMP_pressure;BME280_temperature;BME280_humidity;BME280_pressure;Samples;Min_cycle;Max_cycle;Signal;HPM_P1;HPM_P2
2022/06/24 00:02:03;;;;;;;9.70;3.53;;;;;;;21.01;68.81;99154.34;5041062;28;20052;-57
2022/06/24 00:04:54;;;;;;;5.63;3.22;;;;;;;21.01;68.68;99166.66;5040734;28;20047;-57
2022/06/24 00:07:48;;;;;;;7.43;3.78;;;;;;;20.98;68.84;99175.53;5040950;28;20083;-57
2022/06/24 00:10:35;;;;;;;5.00;3.20;;;;;;;20.98;68.85;99179.00;5040929;28;20079;-57
2022/06/24 00:13:22;;;;;;;5.57;3.10;;;;;;;20.99;68.95;99164.94;5040754;28;20056;-56
2022/06/24 00:16:08;;;;;;;7.20;3.15;;;;;;;20.99;68.93;99154.41;5055074;28;20102;-57
2022/06/24 00:19:10;;;;;;;5.53;2.97;;;;;;;20.99;68.71;99164.94;5055117;28;20044;-57
2022/06/24 00:22:04;;;;;;;6.47;2.92;;;;;;;21.01;68.97;99171.91;5055070;28;20479;-56
2022/06/24 00:24:49;;;;;;;;;;;;;;;21.01;68.87;99167.53;5040662;28;20099;-57
2022/06/24 00:27:38;;;;;;;7.33;2.90;;;;;;;21.01;68.87;99151.72;5055293;28;20348;-57
2022/06/24 00:30:23;;;;;;;6.35;3.35;;;;;;;21.03;68.82;99151.63;5055639;28;20075;-57
2022/06/24 00:33:12;;;;;;;5.78;2.95;;;;;;;21.03;68.89;99152.47;5055185;28;20067;-57
2022/06/24 00:35:59;;;;;;;6.53;3.05;;;;;;;21.04;68.86;99145.44;5055204;28;20155;-56
2022/06/24 00:38:50;;;;;;;5.65;3.15;;;;;;;21.04;68.98;99151.56;5040079;28;20064;-57
2022/06/24 00:41:35;;;;;;;5.80;3.63;;;;;;;21.05;69.16;99147.16;5055227;28;20163;-56
2022/06/24 00:44:24;;;;;;;3.90;3.15;;;;;;;21.04;69.06;99153.34;5040226;28;20506;-57
2022/06/24 00:47:10;;;;;;;6.22;3.10;;;;;;;21.04;68.92;99153.34;5040330;28;20099;-57
2022/06/24 00:49:58;;;;;;;5.35;2.75;;;;;;;21.05;68.87;99160.34;5039876;28;20052;-57
2022/06/24 00:52:44;;;;;;;6.13;3.42;;;;;;;21.03;69.21;99160.38;5039618;28;20167;-57
2022/06/24 00:55:32;;;;;;;4.72;3.00;;;;;;;21.04;69.15;99166.53;5039873;28;20044;-57
2022/06/24 00:58:17;;;;;;;6.78;3.20;;;;;;;21.03;69.08;99168.28;5039717;28;20048;-57
2022/06/24 01:01:01;;;;;;;5.40;3.72;;;;;;;21.03;69.25;99170.91;5039935;28;20102;-57
2022/06/24 01:03:50;;;;;;;5.95;3.70;;;;;;;21.04;69.38;99171.78;5055044;28;20067;-56
2022/06/24 01:06:40;;;;;;;7.97;4.32;;;;;;;21.01;69.37;99164.88;5054417;28;20056;-57
2022/06/24 01:09:24;;;;;;;5.72;4.07;;;;;;;21.03;69.20;99151.63;5039409;28;20098;-56
2022/06/24 01:12:11;;;;;;;6.25;4.30;;;;;;;21.01;69.42;99127.13;5054149;28;20083;-55
2022/06/24 01:14:55;;;;;;;5.72;4.30;;;;;;;21.02;69.23;99126.22;5039168;28;20130;-57
2022/06/24 01:17:39;;;;;;;5.40;4.32;;;;;;;20.99;69.34;99128.06;5054464;28;20090;-55
2022/06/24 01:20:26;;;;;;;8.50;5.22;;;;;;;20.99;69.35;99121.94;5054425;28;20051;-57
2022/06/24 01:23:15;;;;;;;8.88;5.13;;;;;;;21.00;69.49;99128.94;5054317;28;20044;-57
2022/06/24 01:25:59;;;;;;;8.05;5.18;;;;;;;21.00;69.31;99131.56;5038735;28;20095;-57
2022/06/24 01:28:43;;;;;;;6.03;4.63;;;;;;;21.00;69.34;99134.19;5039664;28;20079;-56
2022/06/24 01:31:27;;;;;;;7.47;5.15;;;;;;;20.99;69.39;99135.13;5053826;28;20044;-57
2022/06/24 01:34:12;;;;;;;8.95;5.40;;;;;;;20.99;69.10;99135.13;5039024;28;20044;-56
2022/06/24 01:36:57;;;;;;;11.75;5.63;;;;;;;20.99;69.46;99127.22;5053529;28;20052;-57
2022/06/24 01:39:46;;;;;;;7.63;5.43;;;;;;;20.99;69.45;99127.22;5053891;28;20454;-57
2022/06/24 01:42:30;;;;;;;7.57;6.18;;;;;;;20.99;69.43;99133.31;5039274;28;20400;-57
2022/06/24 01:45:14;;;;;;;10.07;5.68;;;;;;;20.98;69.46;99123.72;5053702;28;20463;-57
2022/06/24 01:47:57;;;;;;;7.80;5.90;;;;;;;20.98;69.24;99122.88;5039023;28;20427;-57
2022/06/24 01:50:44;;;;;;;8.27;6.60;;;;;;;20.98;69.40;99115.81;5038846;28;20128;-57
2022/06/24 01:53:28;;;;;;;6.25;5.65;;;;;;;20.98;69.44;99120.22;5038833;28;20052;-58
2022/06/24 01:56:12;;;;;;;13.00;6.05;;;;;;;20.98;69.52;99109.69;5053426;28;20067;-57
2022/06/24 01:58:56;;;;;;;7.30;5.63;;;;;;;20.98;69.46;99105.28;5038533;28;20047;-57
2022/06/24 02:01:41;;;;;;;8.65;6.13;;;;;;;20.96;69.50;99104.47;5052673;28;20457;-57
2022/06/24 02:04:25;;;;;;;11.35;5.78;;;;;;;20.96;69.24;99095.72;5038756;28;20120;-56
2022/06/24 02:07:09;;;;;;;11.13;4.38;;;;;;;20.96;69.51;99104.47;5053527;28;20075;-56
2022/06/24 02:16:04;;;;;;;8.80;5.45;;;;;;;20.93;69.58;99091.47;5053306;28;20044;-55
2022/06/24 02:18:49;;;;;;;8.82;5.60;;;;;;;20.94;69.46;99092.31;5038123;28;20087;-57
2022/06/24 02:21:34;;;;;;;7.90;5.65;;;;;;;20.94;69.51;99081.78;5038673;28;20064;-56
2022/06/24 02:24:20;;;;;;;7.38;6.18;;;;;;;20.94;69.54;99087.03;5053103;28;20094;-57
2022/06/24 02:27:04;;;;;;;8.20;5.63;;;;;;;20.93;69.42;99080.94;5038071;28;20052;-57
2022/06/24 02:29:53;;;;;;;8.43;5.55;;;;;;;20.93;69.53;99075.66;5053088;28;20090;-56
2022/06/24 02:32:40;;;;;;;8.70;5.82;;;;;;;20.93;69.44;99080.94;5038371;28;20103;-57
2022/06/24 02:35:25;;;;;;;8.23;5.35;;;;;;;20.93;69.63;99074.78;5052752;28;20124;-57
2022/06/24 02:38:17;;;;;;;11.90;5.35;;;;;;;20.91;69.52;99058.19;5038168;28;20566;-57
2022/06/24 02:41:02;;;;;;;10.43;6.05;;;;;;;20.92;69.58;99058.16;5038517;28;20095;-56
2022/06/24 02:43:46;;;;;;;7.25;5.07;;;;;;;20.91;69.41;99048.53;5037883;28;20175;-57
2022/06/24 02:46:29;;;;;;;7.78;5.22;;;;;;;20.91;69.57;99048.53;5053341;28;20048;-57
2022/06/24 02:49:13;;;;;;;6.20;5.45;;;;;;;20.91;69.45;99055.56;5053094;28;20420;-56
2022/06/24 02:52:00;;;;;;;6.70;5.03;;;;;;;20.91;69.46;99050.28;5037681;28;20094;-56
2022/06/24 02:54:44;;;;;;;9.77;5.60;;;;;;;20.90;69.57;99048.59;5038357;28;20051;-56
2022/06/24 02:57:28;;;;;;;8.68;5.63;;;;;;;20.88;69.46;99043.41;5038320;28;20565;-56
2022/06/24 03:00:13;;;;;;;7.78;5.05;;;;;;;20.87;69.59;99033.78;5037919;28;20096;-55
2022/06/24 03:02:57;;;;;;;7.10;4.97;;;;;;;20.88;69.52;99032.84;5037733;28;20056;-55
2022/06/24 03:05:43;;;;;;;7.53;4.88;;;;;;;20.88;69.66;99032.84;5053151;28;20453;-55
2022/06/24 03:08:27;;;;;;;6.80;4.70;;;;;;;20.88;69.45;99026.72;5037611;28;20044;-57
2022/06/24 03:11:14;;;;;;;9.48;4.78;;;;;;;20.87;69.50;99028.50;5053027;28;20522;-56
2022/06/24 03:13:58;;;;;;;7.78;4.70;;;;;;;20.87;69.64;99025.00;5041064;28;20083;-57
2022/06/24 03:16:42;;;;;;;6.32;4.25;;;;;;;20.88;69.56;99024.09;5056727;28;20090;-57
2022/06/24 03:19:26;;;;;;;6.43;4.45;;;;;;;20.86;69.62;99026.81;5056473;28;20519;-57
2022/06/24 03:22:10;;;;;;;9.68;5.18;;;;;;;20.86;69.60;99025.97;5056692;28;20079;-57
2022/06/24 03:24:54;;;;;;;8.15;4.70;;;;;;;20.87;69.53;99025.88;5056484;28;20607;-56
2022/06/24 03:27:40;;;;;;;;;;;;;;;20.83;69.46;99014.63;5057222;28;20051;-57
2022/06/24 03:30:24;;;;;;;9.68;4.18;;;;;;;20.82;69.65;99033.09;5041664;28;19959;-55
2022/06/24 03:33:08;;;;;;;5.70;4.40;;;;;;;20.81;69.31;99041.94;5041168;28;20068;-56
2022/06/24 03:35:52;;;;;;;11.07;5.28;;;;;;;20.79;69.55;99052.53;5055797;28;20126;-56
2022/06/24 03:38:38;;;;;;;6.60;5.35;;;;;;;20.78;69.70;99048.19;5056428;28;20074;-56
2022/06/24 03:41:22;;;;;;;10.23;5.88;;;;;;;20.77;69.96;99050.91;5055780;28;20106;-55
2022/06/24 03:44:06;;;;;;;14.00;7.82;;;;;;;20.77;69.58;99050.91;5055788;28;20083;-56
2022/06/24 03:46:51;;;;;;;11.00;7.45;;;;;;;20.76;69.83;99052.66;5055900;28;20082;-56
2022/06/24 03:49:35;;;;;;;15.18;8.30;;;;;;;20.75;70.07;99057.97;5055921;28;20534;-56
2022/06/24 03:52:21;;;;;;;12.05;7.13;;;;;;;20.74;70.00;99059.72;5056194;28;20534;-56
2022/06/24 03:55:05;;;;;;;10.02;6.85;;;;;;;20.74;69.93;99058.88;5040802;28;20138;-56
2022/06/24 03:57:51;;;;;;;9.63;6.47;;;;;;;20.74;70.00;99064.16;5056285;28;20047;-56
2022/06/24 04:00:35;;;;;;;10.50;7.13;;;;;;;20.74;69.76;99066.78;5055504;28;20106;-56
2022/06/24 04:03:21;;;;;;;10.90;6.18;;;;;;;20.73;69.93;99063.28;5034980;28;20079;-57
2022/06/24 04:06:05;;;;;;;11.88;5.88;;;;;;;20.73;69.94;99071.16;5035777;28;20436;-57
2022/06/24 04:08:51;;;;;;;6.57;5.32;;;;;;;20.72;69.97;99072.09;5035882;28;20064;-56
2022/06/24 04:11:35;;;;;;;10.88;5.65;;;;;;;20.72;69.96;99077.34;5034494;28;20528;-56
2022/06/24 04:15:13;;;;;;;12.70;6.40;;;;;;;20.70;69.82;99079.22;5035613;28;20052;-56
2022/06/24 04:17:24;;;;;;;10.13;5.70;;;;;;;20.69;69.84;99080.97;5035885;28;20563;-56
2022/06/24 04:20:08;;;;;;;7.85;5.25;;;;;;;20.69;69.96;99077.50;5035353;28;20048;-57
2022/06/24 04:22:53;;;;;;;6.97;5.05;;;;;;;20.68;70.04;99075.78;5034095;28;20052;-56
2022/06/24 04:25:37;;;;;;;7.97;4.68;;;;;;;20.67;70.08;99088.09;5035384;28;20052;-56
2022/06/24 04:28:21;;;;;;;7.95;4.65;;;;;;;20.67;69.91;99090.72;5035213;28;20076;-56
2022/06/24 04:31:05;;;;;;;6.30;4.38;;;;;;;20.66;70.04;99094.25;5035207;28;20052;-56
2022/06/24 04:33:49;;;;;;;8.55;4.32;;;;;;;20.65;69.81;99082.03;5034268;28;20425;-57
2022/06/24 04:36:33;;;;;;;5.90;4.22;;;;;;;20.64;69.90;99084.72;5035120;28;20072;-57
2022/06/24 04:39:17;;;;;;;6.95;4.07;;;;;;;20.65;69.81;99089.06;5035427;28;20044;-57
2022/06/24 04:42:01;;;;;;;7.85;4.20;;;;;;;20.63;69.88;99083.00;5035208;28;20420;-57
2022/06/24 04:44:46;;;;;;;5.95;4.10;;;;;;;20.61;69.90;99090.09;5034077;28;20413;-56
2022/06/24 04:47:30;;;;;;;7.68;3.85;;;;;;;20.59;69.80;99098.09;5034285;28;20095;-56
2022/06/24 04:50:14;;;;;;;6.28;3.63;;;;;;;20.60;69.95;99101.56;5035236;28;20385;-57
2022/06/24 04:53:00;;;;;;;4.35;3.60;;;;;;;20.60;69.84;99110.31;5034580;28;20075;-57
2022/06/24 04:55:47;;;;;;;10.25;3.92;;;;;;;20.61;70.20;99105.91;5033883;28;20056;-56
2022/06/24 04:58:33;;;;;;;6.28;4.13;;;;;;;20.60;70.00;99106.81;5034652;28;20047;-55
2022/06/24 05:01:18;;;;;;;6.57;3.35;;;;;;;20.61;69.76;99105.91;5033690;28;20072;-55
2022/06/24 05:04:02;;;;;;;14.10;4.28;;;;;;;20.58;69.83;99108.66;5034368;28;20056;-56
2022/06/24 05:06:49;;;;;;;8.32;3.85;;;;;;;20.59;70.06;99097.22;5034062;28;20049;-56
2022/06/24 05:09:33;;;;;;;6.20;3.65;;;;;;;20.59;69.92;99099.84;5034392;28;20049;-55
2022/06/24 05:12:17;;;;;;;7.32;3.85;;;;;;;20.58;69.81;99093.72;5033838;28;20052;-56
2022/06/24 05:15:01;;;;;;;7.30;3.97;;;;;;;20.56;69.77;99082.41;5033520;28;20052;-56
2022/06/24 05:17:45;;;;;;;4.88;3.50;;;;;;;20.58;69.86;99092.84;5034239;28;20520;-56
2022/06/24 05:20:30;;;;;;;5.72;3.25;;;;;;;20.58;69.87;99096.38;5033734;28;20065;-56
2022/06/24 05:23:14;;;;;;;6.00;3.47;;;;;;;20.56;69.77;99089.44;5034334;28;20048;-55
2022/06/24 05:25:58;;;;;;;6.20;3.20;;;;;;;20.50;69.82;99095.81;5034677;28;20056;-55
2022/06/24 05:28:42;;;;;;;5.40;3.83;;;;;;;20.50;70.01;99093.16;5034145;28;20071;-56
2022/06/24 05:31:26;;;;;;;6.35;3.53;;;;;;;20.51;69.94;99092.25;5034074;28;20238;-55
2022/06/24 05:34:09;;;;;;;5.65;3.35;;;;;;;20.48;69.82;99081.84;5033565;28;20575;-55
2022/06/24 05:36:53;;;;;;;4.60;3.17;;;;;;;20.46;69.87;99086.34;5033821;28;20134;-56
2022/06/24 05:39:37;;;;;;;7.57;3.33;;;;;;;20.46;69.92;99083.72;5033665;28;20044;-55
2022/06/24 05:42:21;;;;;;;4.85;2.78;;;;;;;20.47;69.76;99081.00;5034033;28;20084;-55
2022/06/24 05:45:13;;;;;;;5.85;3.35;;;;;;;20.47;69.82;99081.00;5033971;28;20080;-56
2022/06/24 05:47:57;;;;;;;7.25;3.58;;;;;;;20.46;69.81;99081.06;5033735;28;20520;-56
2022/06/24 05:50:42;;;;;;;5.97;3.03;;;;;;;20.45;70.19;99084.63;5032971;28;20076;-55
2022/06/24 05:56:31;;;;;;;4.78;3.50;;;;;;;20.48;69.97;99079.22;5033821;28;20048;-56
2022/06/24 05:59:15;;;;;;;6.80;3.22;;;;;;;20.48;69.96;99068.69;5033512;28;20091;-55
2022/06/24 06:01:59;;;;;;;6.82;3.85;;;;;;;20.48;69.79;99061.66;5038124;28;20079;-55
2022/06/24 06:04:43;;;;;;;5.95;3.50;;;;;;;20.50;69.76;99064.22;5053718;28;20392;-55
2022/06/24 06:07:27;;;;;;;5.88;3.00;;;;;;;20.49;69.75;99063.38;5053942;28;20448;-55
2022/06/24 06:10:11;;;;;;;10.18;3.33;;;;;;;20.49;69.97;99078.28;5053715;28;20044;-55
2022/06/24 06:12:55;;;;;;;6.35;3.40;;;;;;;20.50;69.63;99078.25;5053285;28;20122;-56
2022/06/24 06:15:40;;;;;;;9.18;3.75;;;;;;;20.48;69.63;99080.09;5038098;28;20044;-57
2022/06/24 06:18:24;;;;;;;8.07;3.80;;;;;;;20.47;69.89;99080.16;5038780;28;20518;-57
2022/06/24 06:21:09;;;;;;;10.15;3.60;;;;;;;20.47;69.85;99081.00;5053200;28;20040;-56
2022/06/24 06:23:53;;;;;;;8.88;3.78;;;;;;;20.47;69.78;99080.16;5053279;28;20055;-56
2022/06/24 06:26:37;;;;;;;6.40;3.85;;;;;;;20.45;70.07;99082.84;5053027;28;20466;-56
2022/06/24 06:29:21;;;;;;;5.55;3.88;;;;;;;20.46;69.86;99083.72;5053229;28;20155;-56
2022/06/24 06:32:05;;;;;;;5.70;3.92;;;;;;;20.45;69.84;99085.47;5053397;28;20162;-57
2022/06/24 06:34:50;;;;;;;6.15;4.22;;;;;;;20.44;69.92;99089.00;5038069;28;20052;-56
2022/06/24 06:37:34;;;;;;;13.38;4.82;;;;;;;20.44;69.85;99082.91;5053290;28;20048;-55
2022/06/24 06:40:18;;;;;;;9.48;4.43;;;;;;;20.43;70.02;99089.09;5053244;28;20068;-57
2022/06/24 06:43:05;;;;;;;7.40;5.40;;;;;;;20.42;69.89;99084.75;5052995;28;20039;-55
2022/06/24 06:45:49;;;;;;;7.32;4.00;;;;;;;20.42;69.98;99092.63;5038458;28;20091;-56
2022/06/24 06:48:33;;;;;;;10.80;4.53;;;;;;;20.38;70.13;99095.38;5057065;28;20051;-55
2022/06/24 06:51:17;;;;;;;6.30;4.20;;;;;;;20.39;69.85;99101.50;5042414;28;20056;-55
2022/06/24 06:54:01;;;;;;;7.20;3.90;;;;;;;20.38;70.13;99111.16;5056680;28;20047;-55
2022/06/24 06:56:44;;;;;;;6.75;4.43;;;;;;;20.39;70.09;99106.78;5041729;28;20420;-57
2022/06/24 06:59:28;;;;;;;7.30;4.45;;;;;;;20.38;70.00;99118.22;5056983;28;20415;-57
2022/06/24 07:02:12;;;;;;;10.43;5.00;;;;;;;20.38;70.06;99111.16;5056913;28;20429;-55
2022/06/24 07:04:56;;;;;;;7.60;4.70;;;;;;;20.40;70.29;99108.47;5057270;28;20095;-58
2022/06/24 07:07:40;;;;;;;8.88;4.60;;;;;;;20.41;70.18;99111.97;5057068;28;20044;-57
2022/06/24 07:10:25;;;;;;;7.90;4.43;;;;;;;20.41;70.24;99117.22;5056954;28;20075;-57
2022/06/24 07:13:09;;;;;;;8.25;4.57;;;;;;;20.42;70.31;99111.91;5056340;28;20079;-57
2022/06/24 07:15:53;;;;;;;7.15;4.50;;;;;;;20.44;70.49;99111.84;5056220;28;20106;-57
2022/06/24 07:18:37;;;;;;;8.93;4.38;;;;;;;20.42;70.29;99116.31;5056410;28;20419;-57
2022/06/24 07:21:21;;;;;;;8.13;4.28;;;;;;;20.42;70.35;99111.91;5056291;28;20431;-56
2022/06/24 07:24:05;;;;;;;6.63;4.13;;;;;;;20.42;70.46;99113.69;5056193;28;20191;-57
2022/06/24 07:26:49;;;;;;;5.80;4.05;;;;;;;20.42;70.41;99116.31;5041778;28;20055;-57
2022/06/24 07:29:34;;;;;;;7.53;5.03;;;;;;;20.42;70.39;99113.69;5056246;28;20051;-56
2022/06/24 07:32:18;;;;;;;8.13;4.05;;;;;;;20.42;70.35;99119.78;5041573;28;20124;-57
2022/06/24 07:35:03;;;;;;;9.20;4.45;;;;;;;20.41;70.31;99125.13;5055848;28;20075;-57
2022/06/24 07:37:47;;;;;;;10.38;4.57;;;;;;;20.42;70.43;99119.78;5056515;28;20155;-57
2022/06/24 07:40:31;;;;;;;14.55;5.55;;;;;;;20.42;70.37;99105.78;5056275;28;20059;-58
2022/06/24 07:43:15;;;;;;;7.53;4.45;;;;;;;20.45;70.44;99108.31;5056159;28;20055;-57
2022/06/24 07:45:58;;;;;;;6.68;4.30;;;;;;;20.44;70.57;99104.81;5056389;28;20059;-55
2022/06/24 07:48:42;;;;;;;8.27;4.90;;;;;;;20.44;70.55;99106.59;5056428;28;20087;-56
2022/06/24 07:51:27;;;;;;;5.82;4.47;;;;;;;20.44;70.43;99106.59;5055836;28;20055;-56
2022/06/24 07:54:10;;;;;;;4.63;4.03;;;;;;;20.41;70.34;99111.97;5056095;28;20435;-55
2022/06/24 07:56:58;;;;;;;6.22;4.32;;;;;;;20.38;70.32;99100.63;5056014;28;20451;-56
2022/06/24 07:59:45;;;;;;;8.38;4.25;;;;;;;20.38;70.26;99105.06;5054896;28;20064;-56
2022/06/24 08:02:29;;;;;;;5.63;4.57;;;;;;;20.37;70.29;99104.19;5055419;28;20098;-57
2022/06/24 08:05:13;;;;;;;8.27;4.20;;;;;;;20.36;70.19;99101.63;5055790;28;20060;-57
2022/06/24 08:07:58;;;;;;;5.68;3.65;;;;;;;20.35;70.15;99100.75;5055592;28;20056;-57
2022/06/24 08:10:42;;;;;;;11.40;4.45;;;;;;;20.35;70.24;99099.91;5055647;28;20098;-57
2022/06/24 08:13:25;;;;;;;4.90;3.80;;;;;;;20.35;70.31;99092.03;5055834;28;20052;-57
2022/06/24 08:16:09;;;;;;;4.78;3.83;;;;;;;20.37;70.19;99098.09;5055611;28;20099;-57
2022/06/24 08:18:54;;;;;;;4.55;3.75;;;;;;;20.36;70.20;99097.22;5055516;28;20471;-57
2022/06/24 08:21:38;;;;;;;6.32;4.05;;;;;;;20.38;70.17;99100.63;5055584;28;20175;-57
2022/06/24 08:24:22;;;;;;;9.88;4.22;;;;;;;20.38;70.05;99098.00;5055560;28;20408;-58
2022/06/24 08:27:07;;;;;;;5.30;3.65;;;;;;;20.38;70.08;99095.38;5055121;28;20147;-57
2022/06/24 08:29:51;;;;;;;6.55;4.10;;;;;;;20.41;70.18;99089.13;5040150;28;20040;-57
2022/06/24 08:32:35;;;;;;;7.30;4.32;;;;;;;20.42;70.22;99087.38;5055284;28;20098;-57
2022/06/24 08:35:19;;;;;;;4.82;3.83;;;;;;;20.42;70.22;99090.84;5054785;28;20487;-57
2022/06/24 08:38:03;;;;;;;7.35;3.63;;;;;;;20.44;70.40;99078.47;5055433;28;20132;-57
2022/06/24 08:40:50;;;;;;;4.00;3.38;;;;;;;20.44;70.20;99073.22;5055112;28;20424;-57
2022/06/24 08:43:35;;;;;;;4.30;3.63;;;;;;;20.44;70.16;99067.13;5040604;28;20071;-58
2022/06/24 08:46:19;;;;;;;6.18;2.80;;;;;;;20.41;70.05;99070.72;5040493;28;20159;-56
2022/06/24 08:49:04;;;;;;;9.05;3.30;;;;;;;20.40;70.17;99071.63;5039899;28;20516;-56
2022/06/24 08:51:49;;;;;;;3.80;2.97;;;;;;;20.42;70.04;99071.59;5040097;28;20051;-55
2022/06/24 08:54:34;;;;;;;9.20;3.30;;;;;;;20.41;70.19;99072.50;5039985;28;20566;-58
2022/06/24 08:57:18;;;;;;;4.78;3.17;;;;;;;20.43;69.95;99070.66;5040065;28;20071;-57
2022/06/24 09:00:02;;;;;;;5.47;2.92;;;;;;;20.42;70.03;99069.78;5054822;28;20119;-57
2022/06/24 09:02:47;;;;;;;5.38;3.53;;;;;;;20.44;70.10;99082.91;5054549;28;20107;-57
2022/06/24 09:05:31;;;;;;;9.23;4.18;;;;;;;20.44;70.05;99083.75;5039927;28;20114;-57
2022/06/24 09:08:16;;;;;;;4.47;3.22;;;;;;;20.47;70.04;99077.53;5054672;28;20083;-59
2022/06/24 09:11:06;;;;;;;5.20;3.45;;;;;;;20.46;70.13;99073.19;5039607;28;20051;-57
2022/06/24 09:14:00;;;;;;;4.80;3.22;;;;;;;20.47;70.17;99074.91;5054103;28;20051;-57
2022/06/24 09:16:44;;;;;;;7.90;3.50;;;;;;;20.47;69.97;99061.75;5054177;28;20048;-56
2022/06/24 09:19:32;;;;;;;4.93;3.25;;;;;;;20.47;69.82;99067.00;5054361;28;20052;-56
2022/06/24 09:22:21;;;;;;;5.55;3.35;;;;;;;20.48;69.75;99063.41;5054159;28;20043;-57
2022/06/24 09:25:07;;;;;;;4.60;3.17;;;;;;;20.50;69.81;99064.22;5054562;28;20055;-58
2022/06/24 09:27:51;;;;;;;5.95;3.17;;;;;;;20.51;69.74;99074.69;5054137;28;20110;-57
2022/06/24 09:30:36;;;;;;;7.10;3.70;;;;;;;20.51;70.00;99082.59;5054113;28;20052;-57
2022/06/24 09:33:21;;;;;;;9.38;3.30;;;;;;;20.52;69.91;99096.59;5038633;28;20048;-61
2022/06/24 09:36:07;;;;;;;5.72;3.65;;;;;;;20.52;69.94;99104.50;5054095;28;20040;-57
2022/06/24 09:38:52;;;;;;;3.83;3.15;;;;;;;20.52;69.72;99115.91;5039337;28;20051;-57
2022/06/24 09:41:55;;;;;;;5.55;3.42;;;;;;;20.51;69.69;99115.94;5054086;28;20040;-57
2022/06/24 09:44:48;;;;;;;4.57;2.97;;;;;;;20.48;69.77;99116.94;5039004;28;20524;-57
2022/06/24 09:47:39;;;;;;;4.80;3.33;;;;;;;20.48;69.79;99119.56;5053758;28;20067;-56
2022/06/24 09:50:23;;;;;;;4.10;2.80;;;;;;;20.48;69.95;99119.56;5038829;28;20506;-56
2022/06/24 09:53:07;;;;;;;3.47;2.65;;;;;;;20.45;69.81;99124.09;5038846;28;20047;-57
2022/06/24 09:55:53;;;;;;;2.13;1.90;;;;;;;20.41;69.55;99131.22;5053648;28;20094;-56
2022/06/24 09:58:42;;;;;;;2.72;1.70;;;;;;;20.35;69.45;99134.97;5038496;28;20565;-55
2022/06/24 10:01:26;;;;;;;3.15;2.05;;;;;;;20.26;69.39;99127.44;5053840;28;20075;-55
2022/06/24 10:04:18;;;;;;;2.72;1.80;;;;;;;20.23;69.62;99138.06;5038684;28;20102;-56
2022/06/24 10:07:03;;;;;;;4.88;2.08;;;;;;;20.17;69.75;99138.28;5038721;28;20456;-55
2022/06/24 10:09:48;;;;;;;2.95;1.77;;;;;;;20.18;69.46;99130.38;5053538;28;20047;-56
2022/06/24 10:12:37;;;;;;;1.65;1.40;;;;;;;20.18;69.50;99122.47;5038729;28;20056;-57
2022/06/24 10:15:22;;;;;;;1.85;1.50;;;;;;;20.18;69.61;99133.00;5038436;28;20082;-57
2022/06/24 10:18:09;;;;;;;1.80;1.70;;;;;;;20.18;69.57;99116.34;5038702;28;20052;-57
2022/06/24 10:20:57;;;;;;;5.20;2.00;;;;;;;20.19;69.68;99115.41;5038116;28;20126;-57
2022/06/24 10:23:47;;;;;;;1.52;1.40;;;;;;;20.18;69.64;99117.22;5038503;28;20052;-56
2022/06/24 10:26:34;;;;;;;1.95;1.60;;;;;;;20.20;69.38;99127.66;5053450;28;20120;-56
2022/06/24 10:29:28;;;;;;;3.33;1.65;;;;;;;20.18;69.60;99132.13;5038611;28;20048;-56
2022/06/24 10:32:12;;;;;;;;;;;;;;;20.18;69.56;99132.13;5038469;28;20064;-57
2022/06/24 10:34:57;;;;;;;3.08;1.55;;;;;;;20.16;69.65;99120.81;5038336;28;19923;-56
2022/06/24 10:37:50;;;;;;;3.95;2.20;;;;;;;20.17;69.61;99112.00;5053154;28;20527;-57
2022/06/24 10:40:37;;;;;;;2.85;1.70;;;;;;;20.16;69.89;99103.25;5038046;28;20178;-57
2022/06/24 10:43:34;;;;;;;2.47;1.88;;;;;;;20.19;69.94;99089.13;5038254;28;20095;-57
2022/06/24 10:46:19;;;;;;;5.22;2.40;;;;;;;20.22;70.08;99086.38;5052781;28;20072;-57
2022/06/24 10:49:03;;;;;;;3.10;2.00;;;;;;;20.21;70.16;99095.19;5038193;28;20464;-57
2022/06/24 10:51:47;;;;;;;3.35;2.20;;;;;;;20.23;70.12;99088.97;5038087;28;20043;-57
2022/06/24 10:54:31;;;;;;;3.40;2.33;;;;;;;20.26;70.05;99084.47;5053426;28;20071;-56
2022/06/24 10:57:15;;;;;;;3.20;1.83;;;;;;;20.29;69.94;99084.34;5053359;28;20052;-56
2022/06/24 11:00:11;;;;;;;4.13;2.47;;;;;;;20.31;69.86;99087.78;5053418;28;20079;-56
2022/06/24 11:03:19;;;;;;;2.20;2.00;;;;;;;20.32;69.97;99081.63;5037622;28;20051;-57
2022/06/24 11:06:04;;;;;;;1.70;1.60;;;;;;;20.35;69.88;99077.06;5052767;28;20579;-55
2022/06/24 11:08:49;;;;;;;4.47;2.35;;;;;;;20.35;70.10;99063.06;5052979;28;20102;-57
2022/06/24 11:11:34;;;;;;;4.03;2.00;;;;;;;20.37;69.99;99061.25;5053206;28;20040;-56
2022/06/24 11:14:25;;;;;;;3.03;2.15;;;;;;;20.36;69.92;99070.91;5037906;28;20056;-57
2022/06/24 11:17:09;;;;;;;2.60;2.13;;;;;;;20.39;69.89;99065.53;5037730;28;20523;-57
2022/06/24 11:19:54;;;;;;;2.78;2.47;;;;;;;20.42;69.73;99074.22;5053201;28;20511;-57
2022/06/24 11:22:43;;;;;;;3.25;2.40;;;;;;;20.42;69.86;99068.94;5037889;28;20044;-57
2022/06/24 11:25:27;;;;;;;3.55;2.33;;;;;;;20.46;69.88;99062.66;5037952;28;20083;-57
2022/06/24 11:28:25;;;;;;;4.55;2.45;;;;;;;20.47;69.86;99056.47;5052608;28;20125;-57
2022/06/24 11:31:17;;;;;;;6.63;2.22;;;;;;;20.49;69.76;99052.84;5052734;28;20142;-57
2022/06/24 11:34:04;;;;;;;3.88;2.63;;;;;;;20.51;69.68;99055.41;5039618;28;20052;-55
2022/06/24 11:36:48;;;;;;;3.63;2.60;;;;;;;20.52;69.78;99070.28;5041520;28;20457;-57
2022/06/24 11:39:32;;;;;;;4.65;2.97;;;;;;;20.53;69.86;99067.59;5056246;28;20124;-57
2022/06/24 11:42:16;;;;;;;3.42;3.13;;;;;;;20.53;69.58;99056.22;5056087;28;20097;-57
2022/06/24 11:45:03;;;;;;;4.45;3.13;;;;;;;20.57;69.74;99057.81;5040868;28;20047;-57
2022/06/24 11:47:48;;;;;;;4.93;2.90;;;;;;;20.58;69.91;99054.25;5041433;28;20063;-57
2022/06/24 11:50:36;;;;;;;3.78;2.40;;;;;;;20.59;69.86;99063.88;5056202;28;20051;-57
2022/06/24 11:53:24;;;;;;;5.40;3.13;;;;;;;20.60;69.73;99055.06;5055931;28;20123;-57
2022/06/24 11:56:09;;;;;;;4.38;3.40;;;;;;;20.62;69.71;99044.44;5040743;28;20047;-57
2022/06/24 11:58:54;;;;;;;4.40;2.80;;;;;;;20.61;69.53;99042.72;5055907;28;20415;-57
2022/06/24 12:01:39;;;;;;;4.50;2.78;;;;;;;20.62;69.67;99037.41;5040645;28;20447;-57
2022/06/24 12:04:25;;;;;;;3.55;2.70;;;;;;;20.61;69.60;99035.72;5055991;28;20561;-56
2022/06/24 12:07:09;;;;;;;3.08;2.78;;;;;;;20.62;69.72;99034.78;5041201;28;20144;-56
2022/06/24 12:09:54;;;;;;;5.55;2.83;;;;;;;20.63;69.30;99019.84;5055678;28;20083;-56
2022/06/24 12:12:55;;;;;;;4.70;2.83;;;;;;;20.62;69.54;99021.63;5055548;28;20542;-56
2022/06/24 12:15:40;;;;;;;2.78;2.53;;;;;;;20.63;69.51;99020.69;5040782;28;20040;-56
2022/06/24 12:18:25;;;;;;;2.97;2.40;;;;;;;20.63;69.71;99027.72;5055667;28;20048;-56
2022/06/24 12:21:10;;;;;;;5.15;2.92;;;;;;;20.64;69.73;99027.66;5040869;28;20052;-56
2022/06/24 12:23:57;;;;;;;3.20;2.90;;;;;;;20.65;69.63;99020.63;5055562;28;20086;-56
2022/06/24 12:26:46;;;;;;;4.80;3.28;;;;;;;20.65;69.45;99024.09;5040727;28;20075;-56
2022/06/24 12:29:33;;;;;;;4.13;2.45;;;;;;;20.64;69.58;99019.75;5054891;28;20415;-58
2022/06/24 12:32:17;;;;;;;4.55;2.90;;;;;;;20.66;69.47;99025.81;5040276;28;20075;-57
2022/06/24 12:35:04;;;;;;;4.40;3.40;;;;;;;20.67;69.71;99018.81;5054748;28;20052;-57
2022/06/24 12:37:53;;;;;;;6.00;2.97;;;;;;;20.67;69.56;99030.16;5039955;28;20052;-57
2022/06/24 12:40:37;;;;;;;3.25;2.78;;;;;;;20.69;69.44;99035.38;5039893;28;20052;-57
2022/06/24 12:43:21;;;;;;;4.15;3.22;;;;;;;20.70;69.51;99045.00;5055047;28;20083;-57
2022/06/24 12:46:05;;;;;;;5.53;3.50;;;;;;;20.69;69.33;99038.88;5039392;28;20059;-56
2022/06/24 12:51:52;;;;;;;5.40;3.20;;;;;;;20.71;69.77;99041.41;5055048;28;20068;-56
2022/06/24 12:54:36;;;;;;;3.97;2.58;;;;;;;20.70;69.45;99039.75;5039824;28;20048;-56
2022/06/24 12:57:20;;;;;;;5.55;3.28;;;;;;;20.71;69.49;99032.69;5054364;28;20047;-56
2022/06/24 13:00:08;;;;;;;5.80;3.53;;;;;;;20.71;69.25;99027.41;5055093;28;20511;-56
2022/06/24 13:02:54;;;;;;;3.75;2.63;;;;;;;20.69;69.34;99023.06;5054746;28;20072;-57
2022/06/24 13:05:40;;;;;;;4.15;3.33;;;;;;;20.71;69.54;99024.78;5054535;28;20044;-55
2022/06/24 13:08:25;;;;;;;5.53;3.42;;;;;;;20.69;69.20;99028.34;5039717;28;20459;-56
2022/06/24 13:11:12;;;;;;;5.00;2.90;;;;;;;20.69;69.29;99030.97;5054913;28;20047;-56
2022/06/24 13:13:57;;;;;;;4.53;2.63;;;;;;;20.68;69.12;99031.88;5039463;28;20056;-56